createdAt,value
2022-08-23T04:00:34.244Z,0.00
2022-08-23T04:01:34.248Z,0.00
2022-08-23T04:02:34.191Z,0.00
2022-08-23T04:03:34.177Z,0.00
2022-08-23T04:04:34.187Z,0.00
2022-08-23T04:05:34.157Z,0.00
2022-08-23T04:06:34.149Z,0.00
2022-08-23T04:07:34.148Z,0.00
2022-08-23T04:08:34.182Z,0.00
2022-08-23T04:09:34.120Z,0.00
2022-08-23T04:10:34.101Z,0.00
2022-08-23T04:11:39.113Z,0.00
2022-08-23T04:12:34.085Z,0.00
2022-08-23T04:13:34.067Z,0.00
2022-08-23T04:14:34.071Z,0.00
2022-08-23T04:15:34.045Z,0.00
2022-08-23T04:16:34.037Z,0.00
2022-08-23T04:17:34.021Z,0.00
2022-08-23T04:18:34.016Z,0.00
2022-08-23T04:19:34.009Z,0.00
2022-08-23T04:20:33.999Z,0.00
2022-08-23T04:21:33.978Z,0.00
2022-08-23T04:22:38.988Z,0.00
2022-08-23T04:23:33.953Z,0.00
2022-08-23T04:24:33.952Z,0.00
2022-08-23T04:25:35.762Z,0.00
2022-08-23T04:26:33.921Z,0.00
2022-08-23T04:27:33.912Z,0.00
2022-08-23T04:28:33.905Z,0.00
2022-08-23T04:29:34.708Z,0.00
2022-08-23T04:30:33.877Z,0.00
2022-08-23T04:31:34.537Z,0.00
2022-08-23T04:32:34.343Z,0.00
2022-08-23T04:33:40.246Z,0.00
2022-08-23T04:34:33.845Z,0.00
2022-08-23T04:35:33.828Z,0.00
2022-08-23T04:36:34.646Z,0.00
2022-08-23T04:37:33.799Z,0.00
2022-08-23T04:38:33.796Z,0.00
2022-08-23T04:39:33.788Z,5.62
2022-08-23T04:40:33.803Z,5.62
2022-08-23T04:41:33.756Z,5.62
2022-08-23T04:42:33.745Z,5.62
2022-08-23T04:43:33.738Z,5.62
2022-08-23T04:44:38.751Z,5.62
2022-08-23T04:45:33.715Z,5.62
2022-08-23T04:46:33.700Z,5.62
2022-08-23T04:47:33.695Z,5.62
2022-08-23T04:48:33.676Z,5.62
2022-08-23T04:49:33.677Z,5.62
2022-08-23T04:50:33.652Z,5.62
2022-08-23T04:51:33.644Z,5.62
2022-08-23T04:52:33.632Z,5.62
2022-08-23T04:53:33.626Z,5.62
2022-08-23T04:54:33.610Z,11.25
2022-08-23T04:55:38.666Z,11.25
2022-08-23T04:56:33.596Z,11.25
2022-08-23T04:57:33.611Z,11.25
2022-08-23T04:58:33.571Z,11.25
2022-08-23T04:59:33.557Z,11.25
2022-08-23T05:00:33.662Z,11.25
2022-08-23T05:01:33.541Z,11.25
2022-08-23T05:02:33.523Z,11.25
2022-08-23T05:03:33.516Z,11.25
2022-08-23T05:04:33.508Z,16.88
2022-08-23T05:05:33.520Z,16.88
2022-08-23T05:06:39.513Z,16.88
2022-08-23T05:07:42.318Z,16.88
2022-08-23T05:08:34.457Z,16.88
2022-08-23T05:09:33.458Z,16.88
2022-08-23T05:10:33.449Z,16.88
2022-08-23T05:11:33.424Z,16.88
2022-08-23T05:12:33.411Z,16.88
2022-08-23T05:13:34.696Z,16.88
2022-08-23T05:14:33.387Z,16.88
2022-08-23T05:15:33.391Z,22.50
2022-08-23T05:16:33.371Z,22.50
2022-08-23T05:17:38.392Z,22.50
2022-08-23T05:18:33.384Z,22.50
2022-08-23T05:19:33.336Z,22.50
2022-08-23T05:20:33.339Z,22.50
2022-08-23T05:21:33.319Z,22.50
2022-08-23T05:22:33.306Z,22.50
2022-08-23T05:23:33.300Z,22.50
2022-08-23T05:24:33.277Z,22.50
2022-08-23T05:25:33.283Z,22.50
2022-08-23T05:26:33.257Z,28.12
2022-08-23T05:27:33.376Z,28.12
2022-08-23T05:28:38.265Z,28.12
2022-08-23T05:29:33.227Z,28.12
2022-08-23T05:30:33.224Z,28.12
2022-08-23T05:31:33.205Z,28.12
2022-08-23T05:32:33.793Z,28.12
2022-08-23T05:33:33.185Z,28.12
2022-08-23T05:34:33.165Z,28.12
2022-08-23T05:35:33.179Z,28.12
2022-08-23T05:36:33.146Z,33.75
2022-08-23T05:37:33.137Z,33.75
2022-08-23T05:38:33.122Z,33.75
2022-08-23T05:39:38.143Z,33.75
2022-08-23T05:40:33.124Z,33.75
2022-08-23T05:41:33.352Z,33.75
2022-08-23T05:42:34.081Z,33.75
2022-08-23T05:43:33.078Z,33.75
2022-08-23T05:44:36.435Z,33.75
2022-08-23T05:45:33.058Z,33.75
2022-08-23T05:46:33.034Z,45.00
2022-08-23T05:47:33.921Z,45.00
2022-08-23T05:48:33.012Z,45.00
2022-08-23T05:49:33.460Z,39.38
2022-08-23T05:50:38.036Z,39.38
2022-08-23T05:51:32.982Z,39.38
2022-08-23T05:52:32.968Z,45.00
2022-08-23T05:53:32.959Z,50.62
2022-08-23T05:54:32.951Z,50.62
2022-08-23T05:55:34.835Z,56.25
2022-08-23T05:56:32.934Z,50.62
2022-08-23T05:57:32.912Z,50.62
2022-08-23T05:58:32.899Z,45.00
2022-08-23T05:59:32.893Z,50.62
2022-08-23T06:00:40.397Z,50.62
2022-08-23T06:01:38.915Z,50.62
2022-08-23T06:02:32.889Z,45.00
2022-08-23T06:03:32.846Z,45.00
2022-08-23T06:04:32.909Z,45.00
2022-08-23T06:05:32.827Z,45.00
2022-08-23T06:06:37.271Z,45.00
2022-08-23T06:07:32.812Z,45.00
2022-08-23T06:08:32.791Z,45.00
2022-08-23T06:09:32.783Z,45.00
2022-08-23T06:10:32.770Z,45.00
2022-08-23T06:11:32.801Z,45.00
2022-08-23T06:12:37.765Z,45.00
2022-08-23T06:13:32.759Z,50.62
2022-08-23T06:14:32.776Z,50.62
2022-08-23T06:15:32.714Z,50.62
2022-08-23T06:16:32.734Z,56.25
2022-08-23T06:17:32.698Z,61.88
2022-08-23T06:18:32.690Z,61.88
2022-08-23T06:19:32.704Z,67.50
2022-08-23T06:20:32.747Z,73.12
2022-08-23T06:21:32.658Z,67.50
2022-08-23T06:22:32.632Z,78.75
2022-08-23T06:23:37.653Z,90.00
2022-08-23T06:24:32.626Z,106.88
2022-08-23T06:25:32.605Z,129.38
2022-08-23T06:26:32.600Z,151.88
2022-08-23T06:27:32.707Z,163.12
2022-08-23T06:28:32.617Z,151.88
2022-08-23T06:29:32.566Z,135.00
2022-08-23T06:30:34.481Z,129.38
2022-08-23T06:31:32.550Z,123.75
2022-08-23T06:32:32.597Z,90.00
2022-08-23T06:33:32.557Z,90.00
2022-08-23T06:34:37.521Z,90.00
2022-08-23T06:35:37.865Z,78.75
2022-08-23T06:36:33.487Z,90.00
2022-08-23T06:37:32.469Z,78.75
2022-08-23T06:38:32.517Z,61.88
2022-08-23T06:39:35.543Z,61.88
2022-08-23T06:40:33.439Z,61.88
2022-08-23T06:41:32.456Z,61.88
2022-08-23T06:42:38.517Z,67.50
2022-08-23T06:43:33.440Z,67.50
2022-08-23T06:44:32.396Z,67.50
2022-08-23T06:45:37.403Z,67.50
2022-08-23T06:46:32.429Z,67.50
2022-08-23T06:47:32.360Z,67.50
2022-08-23T06:48:32.364Z,84.38
2022-08-23T06:49:32.348Z,129.38
2022-08-23T06:50:32.621Z,123.75
2022-08-23T06:51:32.360Z,112.50
2022-08-23T06:52:32.303Z,101.25
2022-08-23T06:53:32.318Z,101.25
2022-08-23T06:54:32.289Z,106.88
2022-08-23T06:55:32.290Z,106.88
2022-08-23T06:56:37.291Z,90.00
2022-08-23T06:57:32.259Z,78.75
2022-08-23T06:58:32.274Z,67.50
2022-08-23T06:59:32.650Z,67.50
2022-08-23T07:00:32.282Z,73.12
2022-08-23T07:01:47.847Z,78.75
2022-08-23T07:02:33.275Z,78.75
2022-08-23T07:03:32.287Z,67.50
2022-08-23T07:04:32.223Z,67.50
2022-08-23T07:05:32.174Z,67.50
2022-08-23T07:06:32.320Z,67.50
2022-08-23T07:07:37.642Z,67.50
2022-08-23T07:08:33.318Z,67.50
2022-08-23T07:09:32.116Z,67.50
2022-08-23T07:10:32.111Z,67.50
2022-08-23T07:11:32.120Z,67.50
2022-08-23T07:12:32.079Z,84.38
2022-08-23T07:13:32.079Z,84.38
2022-08-23T07:14:32.059Z,73.12
2022-08-23T07:15:32.047Z,73.12
2022-08-23T07:16:32.135Z,67.50
2022-08-23T07:17:32.026Z,67.50
2022-08-23T07:18:37.034Z,67.50
2022-08-23T07:19:32.009Z,67.50
2022-08-23T07:20:32.001Z,67.50
2022-08-23T07:21:31.987Z,67.50
2022-08-23T07:22:31.993Z,67.50
2022-08-23T07:23:31.969Z,73.12
2022-08-23T07:24:33.636Z,73.12
2022-08-23T07:25:31.952Z,73.12
2022-08-23T07:26:31.926Z,73.12
2022-08-23T07:27:31.979Z,84.38
2022-08-23T07:28:31.904Z,84.38
2022-08-23T07:29:36.930Z,73.12
2022-08-23T07:30:31.885Z,73.12
2022-08-23T07:31:31.989Z,73.12
2022-08-23T07:32:31.856Z,73.12
2022-08-23T07:33:31.855Z,73.12
2022-08-23T07:34:31.831Z,73.12
2022-08-23T07:35:34.613Z,73.12
2022-08-23T07:36:32.833Z,78.75
2022-08-23T07:37:31.805Z,78.75
2022-08-23T07:38:31.788Z,73.12
2022-08-23T07:39:31.858Z,73.12
2022-08-23T07:40:38.998Z,78.75
2022-08-23T07:41:32.810Z,78.75
2022-08-23T07:42:31.741Z,78.75
2022-08-23T07:43:31.736Z,78.75
2022-08-23T07:44:31.723Z,78.75
2022-08-23T07:45:31.714Z,78.75
2022-08-23T07:46:31.763Z,78.75
2022-08-23T07:47:31.688Z,78.75
2022-08-23T07:48:52.425Z,78.75
2022-08-23T07:49:32.669Z,78.75
2022-08-23T07:50:31.660Z,78.75
2022-08-23T07:51:36.686Z,78.75
2022-08-23T07:52:31.636Z,84.38
2022-08-23T07:53:37.899Z,84.38
2022-08-23T07:54:32.630Z,84.38
2022-08-23T07:55:31.599Z,84.38
2022-08-23T07:56:31.593Z,90.00
2022-08-23T07:57:31.610Z,84.38
2022-08-23T07:58:31.568Z,84.38
2022-08-23T07:59:34.672Z,84.38
2022-08-23T08:00:31.547Z,90.00
2022-08-23T08:01:31.606Z,90.00
2022-08-23T08:02:36.620Z,90.00
2022-08-23T08:03:31.520Z,101.25
2022-08-23T08:04:31.495Z,95.62
2022-08-23T08:05:31.496Z,106.88
2022-08-23T08:06:31.474Z,101.25
2022-08-23T08:07:31.501Z,90.00
2022-08-23T08:08:31.522Z,90.00
2022-08-23T08:09:31.443Z,90.00
2022-08-23T08:10:31.457Z,90.00
2022-08-23T08:11:34.737Z,90.00
2022-08-23T08:12:31.418Z,90.00
2022-08-23T08:13:36.425Z,95.62
2022-08-23T08:14:31.388Z,95.62
2022-08-23T08:15:31.379Z,95.62
2022-08-23T08:16:31.476Z,95.62
2022-08-23T08:17:31.370Z,95.62
2022-08-23T08:18:31.344Z,101.25
2022-08-23T08:19:31.343Z,95.62
2022-08-23T08:20:31.320Z,101.25
2022-08-23T08:21:31.315Z,101.25
2022-08-23T08:22:31.309Z,95.62
2022-08-23T08:23:31.293Z,95.62
2022-08-23T08:24:36.302Z,95.62
2022-08-23T08:25:31.322Z,95.62
2022-08-23T08:26:31.258Z,95.62
2022-08-23T08:27:31.256Z,101.25
2022-08-23T08:28:31.235Z,101.25
2022-08-23T08:29:31.250Z,106.88
2022-08-23T08:30:31.215Z,101.25
2022-08-23T08:31:31.306Z,101.25
2022-08-23T08:32:31.201Z,101.25
2022-08-23T08:33:31.182Z,106.88
2022-08-23T08:34:31.177Z,106.88
2022-08-23T08:35:36.187Z,106.88
2022-08-23T08:36:31.155Z,106.88
2022-08-23T08:37:31.155Z,112.50
2022-08-23T08:38:31.134Z,112.50
2022-08-23T08:39:31.113Z,112.50
2022-08-23T08:40:31.107Z,112.50
2022-08-23T08:41:31.092Z,112.50
2022-08-23T08:42:31.094Z,129.38
2022-08-23T08:43:31.070Z,151.88
2022-08-23T08:44:31.060Z,129.38
2022-08-23T08:45:31.143Z,129.38
2022-08-23T08:46:36.143Z,135.00
2022-08-23T08:47:31.055Z,123.75
2022-08-23T08:48:31.019Z,106.88
2022-08-23T08:49:31.971Z,106.88
2022-08-23T08:50:30.995Z,112.50
2022-08-23T08:51:30.983Z,106.88
2022-08-23T08:52:32.223Z,123.75
2022-08-23T08:53:30.967Z,118.12
2022-08-23T08:54:30.951Z,118.12
2022-08-23T08:55:30.944Z,118.12
2022-08-23T08:56:32.159Z,112.50
2022-08-23T08:57:35.954Z,112.50
2022-08-23T08:58:30.916Z,112.50
2022-08-23T08:59:30.892Z,123.75
2022-08-23T09:00:30.896Z,174.38
2022-08-23T09:01:30.893Z,675.00
2022-08-23T09:02:32.624Z,894.38
2022-08-23T09:03:30.929Z,163.12
2022-08-23T09:04:30.874Z,140.62
2022-08-23T09:05:30.827Z,146.25
2022-08-23T09:06:30.836Z,135.00
2022-08-23T09:07:31.449Z,129.38
2022-08-23T09:08:35.836Z,112.50
2022-08-23T09:09:30.823Z,112.50
2022-08-23T09:10:30.784Z,112.50
2022-08-23T09:11:30.770Z,112.50
2022-08-23T09:12:30.763Z,112.50
2022-08-23T09:13:30.739Z,112.50
2022-08-23T09:14:31.756Z,112.50
2022-08-23T09:15:30.723Z,118.12
2022-08-23T09:16:30.713Z,191.25
2022-08-23T09:17:30.713Z,247.50
2022-08-23T09:18:30.688Z,292.50
2022-08-23T09:19:35.696Z,163.12
2022-08-23T09:20:33.101Z,123.75
2022-08-23T09:21:30.656Z,129.38
2022-08-23T09:22:30.644Z,365.62
2022-08-23T09:23:30.644Z,1085.62
2022-08-23T09:24:30.627Z,641.25
2022-08-23T09:25:30.611Z,292.50
2022-08-23T09:26:30.605Z,264.38
2022-08-23T09:27:32.698Z,146.25
2022-08-23T09:28:30.592Z,140.62
2022-08-23T09:29:30.569Z,146.25
2022-08-23T09:30:35.583Z,151.88
2022-08-23T09:31:34.148Z,421.88
2022-08-23T09:32:31.541Z,343.12
2022-08-23T09:33:30.538Z,185.62
2022-08-23T09:34:30.529Z,129.38
2022-08-23T09:35:30.501Z,129.38
2022-08-23T09:36:30.498Z,129.38
2022-08-23T09:37:30.481Z,129.38
2022-08-23T09:38:30.486Z,135.00
2022-08-23T09:39:31.207Z,123.75
2022-08-23T09:40:30.451Z,129.38
2022-08-23T09:41:35.467Z,129.38
2022-08-23T09:42:30.437Z,129.38
2022-08-23T09:43:30.440Z,129.38
2022-08-23T09:44:30.414Z,129.38
2022-08-23T09:45:35.105Z,129.38
2022-08-23T09:46:31.475Z,135.00
2022-08-23T09:47:30.375Z,129.38
2022-08-23T09:48:31.232Z,135.00
2022-08-23T09:49:30.364Z,140.62
2022-08-23T09:50:30.359Z,157.50
2022-08-23T09:51:30.336Z,360.00
2022-08-23T09:52:35.350Z,185.62
2022-08-23T09:53:30.326Z,168.75
2022-08-23T09:54:30.310Z,517.50
2022-08-23T09:55:30.285Z,635.62
2022-08-23T09:56:30.278Z,725.62
2022-08-23T09:57:30.267Z,601.88
2022-08-23T09:58:30.275Z,258.75
2022-08-23T09:59:30.247Z,174.38
2022-08-23T10:00:30.232Z,157.50
2022-08-23T10:01:30.327Z,168.75
2022-08-23T10:02:30.211Z,230.62
2022-08-23T10:03:35.239Z,253.12
2022-08-23T10:04:30.207Z,225.00
2022-08-23T10:05:30.176Z,180.00
2022-08-23T10:06:31.056Z,135.00
2022-08-23T10:07:30.153Z,196.88
2022-08-23T10:08:30.151Z,140.62
2022-08-23T10:09:30.140Z,157.50
2022-08-23T10:10:30.122Z,202.50
2022-08-23T10:11:30.114Z,163.12
2022-08-23T10:12:30.100Z,146.25
2022-08-23T10:13:30.092Z,157.50
2022-08-23T10:14:35.145Z,135.00
2022-08-23T10:15:33.097Z,129.38
2022-08-23T10:16:31.098Z,129.38
2022-08-23T10:17:30.044Z,129.38
2022-08-23T10:18:30.054Z,129.38
2022-08-23T10:19:30.033Z,129.38
2022-08-23T10:20:30.038Z,135.00
2022-08-23T10:21:30.009Z,129.38
2022-08-23T10:22:29.994Z,129.38
2022-08-23T10:23:29.990Z,135.00
2022-08-23T10:24:29.995Z,191.25
2022-08-23T10:25:34.982Z,146.25
2022-08-23T10:26:29.946Z,191.25
2022-08-23T10:27:29.934Z,208.12
2022-08-23T10:28:29.934Z,129.38
2022-08-23T10:29:30.923Z,140.62
2022-08-23T10:30:29.901Z,135.00
2022-08-23T10:31:29.912Z,140.62
2022-08-23T10:32:29.880Z,140.62
2022-08-23T10:33:29.875Z,140.62
2022-08-23T10:34:30.117Z,135.00
2022-08-23T10:35:29.849Z,140.62
2022-08-23T10:36:34.869Z,140.62
2022-08-23T10:37:29.824Z,135.00
2022-08-23T10:38:29.815Z,140.62
2022-08-23T10:39:29.824Z,146.25
2022-08-23T10:40:29.830Z,421.88
2022-08-23T10:41:29.816Z,236.25
2022-08-23T10:42:29.782Z,298.12
2022-08-23T10:43:29.765Z,354.38
2022-08-23T10:44:29.767Z,331.88
2022-08-23T10:45:29.743Z,196.88
2022-08-23T10:46:29.791Z,258.75
2022-08-23T10:47:34.739Z,213.75
2022-08-23T10:48:29.706Z,472.50
2022-08-23T10:49:29.730Z,742.50
2022-08-23T10:50:29.703Z,590.62
2022-08-23T10:51:31.322Z,225.00
2022-08-23T10:52:29.663Z,270.00
2022-08-23T10:53:29.652Z,585.00
2022-08-23T10:54:29.655Z,241.88
2022-08-23T10:55:29.635Z,191.25
2022-08-23T10:56:29.627Z,174.38
2022-08-23T10:57:29.608Z,185.62
2022-08-23T10:58:34.620Z,140.62
2022-08-23T10:59:29.605Z,151.88
2022-08-23T11:00:29.584Z,151.88
2022-08-23T11:01:29.626Z,140.62
2022-08-23T11:02:29.616Z,135.00
2022-08-23T11:03:29.543Z,140.62
2022-08-23T11:04:29.543Z,140.62
2022-08-23T11:05:29.525Z,140.62
2022-08-23T11:06:29.513Z,157.50
2022-08-23T11:07:29.504Z,315.00
2022-08-23T11:08:29.519Z,180.00
2022-08-23T11:09:34.512Z,146.25
2022-08-23T11:10:29.491Z,230.62
2022-08-23T11:11:29.480Z,225.00
2022-08-23T11:12:29.448Z,174.38
2022-08-23T11:13:29.456Z,146.25
2022-08-23T11:14:29.511Z,213.75
2022-08-23T11:15:29.437Z,208.12
2022-08-23T11:16:29.406Z,140.62
2022-08-23T11:17:29.392Z,146.25
2022-08-23T11:18:33.148Z,140.62
2022-08-23T11:19:29.383Z,146.25
2022-08-23T11:20:29.362Z,146.25
2022-08-23T11:21:29.349Z,146.25
2022-08-23T11:22:34.374Z,180.00
2022-08-23T11:23:29.351Z,146.25
2022-08-23T11:24:29.350Z,230.62
2022-08-23T11:25:29.316Z,196.88
2022-08-23T11:26:29.296Z,151.88
2022-08-23T11:27:29.285Z,196.88
2022-08-23T11:28:30.438Z,213.75
2022-08-23T11:29:29.273Z,213.75
2022-08-23T11:30:29.262Z,151.88
2022-08-23T11:31:29.241Z,202.50
2022-08-23T11:32:30.074Z,151.88
2022-08-23T11:33:29.219Z,151.88
2022-08-23T11:34:29.680Z,151.88
2022-08-23T11:35:34.238Z,225.00
2022-08-23T11:36:29.214Z,202.50
2022-08-23T11:37:29.201Z,163.12
2022-08-23T11:38:29.178Z,174.38
2022-08-23T11:39:29.155Z,146.25
2022-08-23T11:40:29.179Z,146.25
2022-08-23T11:41:30.127Z,180.00
2022-08-23T11:42:29.124Z,146.25
2022-08-23T11:43:29.119Z,185.62
2022-08-23T11:44:29.105Z,146.25
2022-08-23T11:45:29.115Z,140.62
2022-08-23T11:46:29.191Z,146.25
2022-08-23T11:47:29.069Z,140.62
2022-08-23T11:48:34.093Z,140.62
2022-08-23T11:49:29.070Z,140.62
2022-08-23T11:50:29.074Z,140.62
2022-08-23T11:51:29.051Z,140.62
2022-08-23T11:52:29.017Z,253.12
2022-08-23T11:53:29.007Z,174.38
2022-08-23T11:54:28.996Z,151.88
2022-08-23T11:55:28.995Z,146.25
2022-08-23T11:56:28.975Z,146.25
2022-08-23T11:57:28.967Z,146.25
2022-08-23T11:58:29.699Z,146.25
2022-08-23T11:59:28.940Z,151.88
2022-08-23T12:00:29.737Z,686.25
2022-08-23T12:01:33.939Z,466.88
2022-08-23T12:02:29.049Z,1940.62
2022-08-23T12:03:29.067Z,1940.62
2022-08-23T12:04:28.901Z,2851.88
2022-08-23T12:05:28.885Z,3121.88
2022-08-23T12:06:28.870Z,3352.50
2022-08-23T12:07:28.855Z,3352.50
2022-08-23T12:08:28.861Z,3161.25
2022-08-23T12:09:28.848Z,3121.88
2022-08-23T12:10:28.848Z,3268.12
2022-08-23T12:11:28.814Z,3335.62
2022-08-23T12:12:28.803Z,3301.88
2022-08-23T12:13:28.791Z,3178.12
2022-08-23T12:14:34.008Z,3206.25
2022-08-23T12:15:28.869Z,3161.25
2022-08-23T12:16:29.064Z,3037.50
2022-08-23T12:17:29.757Z,3015.00
2022-08-23T12:18:29.746Z,3082.50
2022-08-23T12:19:28.736Z,3150.00
2022-08-23T12:20:28.734Z,3240.00
2022-08-23T12:21:28.710Z,3155.62
2022-08-23T12:22:28.742Z,3065.62
2022-08-23T12:23:28.707Z,3121.88
2022-08-23T12:24:28.678Z,3133.12
2022-08-23T12:25:28.695Z,3127.50
2022-08-23T12:26:28.668Z,3048.75
2022-08-23T12:27:33.673Z,3026.25
2022-08-23T12:28:28.642Z,3105.00
2022-08-23T12:29:28.631Z,3150.00
2022-08-23T12:30:28.629Z,3105.00
2022-08-23T12:31:28.722Z,3015.00
2022-08-23T12:32:30.394Z,2919.38
2022-08-23T12:33:28.593Z,2790.00
2022-08-23T12:34:28.600Z,2925.00
2022-08-23T12:35:28.580Z,3054.38
2022-08-23T12:36:28.560Z,2953.12
2022-08-23T12:37:28.557Z,2846.25
2022-08-23T12:38:33.564Z,2700.00
2022-08-23T12:39:28.534Z,2958.75
2022-08-23T12:40:28.530Z,3060.00
2022-08-23T12:41:28.508Z,2767.50
2022-08-23T12:42:28.503Z,2317.50
2022-08-23T12:43:28.503Z,1316.25
2022-08-23T12:44:28.483Z,253.12
2022-08-23T12:45:28.552Z,191.25
2022-08-23T12:46:28.521Z,174.38
2022-08-23T12:47:28.458Z,168.75
2022-08-23T12:48:28.439Z,163.12
2022-08-23T12:49:33.456Z,157.50
2022-08-23T12:50:32.718Z,157.50
2022-08-23T12:51:28.452Z,157.50
2022-08-23T12:52:28.399Z,157.50
2022-08-23T12:53:28.388Z,151.88
2022-08-23T12:54:28.383Z,146.25
2022-08-23T12:55:28.379Z,140.62
2022-08-23T12:56:31.653Z,140.62
2022-08-23T12:57:28.348Z,140.62
2022-08-23T12:58:31.645Z,135.00
2022-08-23T12:59:28.329Z,135.00
2022-08-23T13:00:33.949Z,135.00
2022-08-23T13:01:30.015Z,135.00
2022-08-23T13:02:28.346Z,135.00
2022-08-23T13:03:28.317Z,135.00
2022-08-23T13:04:28.289Z,129.38
2022-08-23T13:05:28.299Z,129.38
2022-08-23T13:06:28.264Z,129.38
2022-08-23T13:07:28.257Z,129.38
2022-08-23T13:08:34.703Z,129.38
2022-08-23T13:09:29.360Z,129.38
2022-08-23T13:10:28.230Z,129.38
2022-08-23T13:11:33.225Z,129.38
2022-08-23T13:12:28.215Z,129.38
2022-08-23T13:13:28.211Z,135.00
2022-08-23T13:14:31.141Z,135.00
2022-08-23T13:15:28.201Z,129.38
2022-08-23T13:16:28.292Z,129.38
2022-08-23T13:17:28.140Z,129.38
2022-08-23T13:18:28.135Z,129.38
2022-08-23T13:19:28.125Z,129.38
2022-08-23T13:20:28.131Z,135.00
2022-08-23T13:21:28.108Z,129.38
2022-08-23T13:22:28.089Z,129.38
2022-08-23T13:23:28.079Z,129.38
2022-08-23T13:24:37.720Z,123.75
2022-08-23T13:25:32.006Z,123.75
2022-08-23T13:26:28.070Z,123.75
2022-08-23T13:27:28.859Z,123.75
2022-08-23T13:28:29.024Z,118.12
2022-08-23T13:29:28.030Z,118.12
2022-08-23T13:30:28.040Z,112.50
2022-08-23T13:31:28.024Z,118.12
2022-08-23T13:32:27.981Z,118.12
2022-08-23T13:33:27.972Z,118.12
2022-08-23T13:34:27.960Z,118.12
2022-08-23T13:35:27.967Z,118.12
2022-08-23T13:36:27.940Z,112.50
2022-08-23T13:37:32.970Z,118.12
2022-08-23T13:38:27.946Z,112.50
2022-08-23T13:39:27.940Z,112.50
2022-08-23T13:40:27.956Z,112.50
2022-08-23T13:41:27.886Z,112.50
2022-08-23T13:42:27.901Z,112.50
2022-08-23T13:43:27.866Z,112.50
2022-08-23T13:44:27.856Z,112.50
2022-08-23T13:45:27.842Z,106.88
2022-08-23T13:46:27.962Z,106.88
2022-08-23T13:47:27.874Z,106.88
2022-08-23T13:48:27.810Z,106.88
2022-08-23T13:49:27.801Z,106.88
2022-08-23T13:50:32.829Z,106.88
2022-08-23T13:51:27.812Z,106.88
2022-08-23T13:52:50.890Z,106.88
2022-08-23T13:53:28.756Z,106.88
2022-08-23T13:54:27.754Z,106.88
2022-08-23T13:55:27.738Z,106.88
2022-08-23T13:56:27.737Z,106.88
2022-08-23T13:57:30.161Z,106.88
2022-08-23T13:58:27.702Z,106.88
2022-08-23T13:59:31.781Z,106.88
2022-08-23T14:00:27.701Z,106.88
2022-08-23T14:01:27.736Z,106.88
2022-08-23T14:02:27.662Z,106.88
2022-08-23T14:03:32.674Z,106.88
2022-08-23T14:04:27.661Z,106.88
2022-08-23T14:05:27.672Z,106.88
2022-08-23T14:06:28.725Z,112.50
2022-08-23T14:07:27.607Z,106.88
2022-08-23T14:08:27.597Z,101.25
2022-08-23T14:09:27.586Z,101.25
2022-08-23T14:10:27.576Z,101.25
2022-08-23T14:11:27.588Z,101.25
2022-08-23T14:12:27.896Z,101.25
2022-08-23T14:13:27.547Z,101.25
2022-08-23T14:14:27.533Z,101.25
2022-08-23T14:16:34.164Z,95.62
2022-08-23T14:17:27.548Z,95.62
2022-08-23T14:18:27.537Z,95.62
2022-08-23T14:20:33.432Z,101.25
2022-08-23T14:21:28.482Z,101.25
2022-08-23T14:22:27.448Z,101.25
2022-08-23T14:23:27.436Z,95.62
2022-08-23T14:24:27.427Z,95.62
2022-08-23T14:25:27.418Z,95.62
2022-08-23T14:26:27.417Z,95.62
2022-08-23T14:27:27.397Z,95.62
2022-08-23T14:28:27.384Z,101.25
2022-08-23T14:29:32.398Z,101.25
2022-08-23T14:30:29.291Z,95.62
2022-08-23T14:31:27.399Z,95.62
2022-08-23T14:32:27.337Z,95.62
2022-08-23T14:33:27.347Z,95.62
2022-08-23T14:34:27.319Z,95.62
2022-08-23T14:35:27.308Z,95.62
2022-08-23T14:36:30.002Z,95.62
2022-08-23T14:38:28.274Z,95.62
2022-08-23T14:39:27.294Z,95.62
2022-08-23T14:40:27.323Z,95.62
2022-08-23T14:41:27.246Z,95.62
2022-08-23T14:42:32.329Z,95.62
2022-08-23T14:43:27.243Z,95.62
2022-08-23T14:44:33.122Z,95.62
2022-08-23T14:45:28.200Z,95.62
2022-08-23T14:46:27.278Z,95.62
2022-08-23T14:47:27.197Z,95.62
2022-08-23T14:48:27.172Z,95.62
2022-08-23T14:49:27.185Z,90.00
2022-08-23T14:50:28.243Z,90.00
2022-08-23T14:51:27.138Z,90.00
2022-08-23T14:52:27.136Z,90.00
2022-08-23T14:53:27.119Z,90.00
2022-08-23T14:54:27.104Z,90.00
2022-08-23T14:55:32.117Z,90.00
2022-08-23T14:56:27.104Z,90.00
2022-08-23T14:57:27.110Z,90.00
2022-08-23T14:58:27.058Z,90.00
2022-08-23T14:59:27.056Z,90.00
2022-08-23T15:00:27.041Z,90.00
2022-08-23T15:01:27.086Z,90.00
2022-08-23T15:02:27.030Z,90.00
2022-08-23T15:03:27.055Z,90.00
2022-08-23T15:04:32.375Z,90.00
2022-08-23T15:05:27.989Z,90.00
2022-08-23T15:06:26.975Z,90.00
2022-08-23T15:07:26.980Z,90.00
2022-08-23T15:08:31.977Z,90.00
2022-08-23T15:09:26.964Z,90.00
2022-08-23T15:13:33.844Z,84.38
2022-08-23T15:14:27.888Z,84.38
2022-08-23T15:15:26.887Z,84.38
2022-08-23T15:16:26.922Z,84.38
2022-08-23T15:17:31.315Z,84.38
2022-08-23T15:18:26.857Z,84.38
2022-08-23T15:19:26.852Z,84.38
2022-08-23T15:20:26.824Z,84.38
2022-08-23T15:21:31.839Z,84.38
2022-08-23T15:22:26.844Z,84.38
2022-08-23T15:23:26.818Z,84.38
2022-08-23T15:24:26.783Z,84.38
2022-08-23T15:25:26.773Z,84.38
2022-08-23T15:26:26.760Z,84.38
2022-08-23T15:27:26.764Z,84.38
2022-08-23T15:28:26.741Z,84.38
2022-08-23T15:29:26.731Z,84.38
2022-08-23T15:30:26.828Z,84.38
2022-08-23T15:31:26.704Z,78.75
2022-08-23T15:32:26.708Z,78.75
2022-08-23T15:33:30.822Z,78.75
2022-08-23T15:34:33.313Z,78.75
2022-08-23T15:35:26.694Z,78.75
2022-08-23T15:36:26.702Z,78.75
2022-08-23T15:37:26.654Z,78.75
2022-08-23T15:38:26.639Z,78.75
2022-08-23T15:39:26.625Z,78.75
2022-08-23T15:40:26.669Z,73.12
2022-08-23T15:41:26.596Z,73.12
2022-08-23T15:42:26.602Z,67.50
2022-08-23T15:43:34.017Z,67.50
2022-08-23T15:44:27.571Z,67.50
2022-08-23T15:45:26.554Z,73.12
2022-08-23T15:46:26.642Z,73.12
2022-08-23T15:47:31.568Z,73.12
2022-08-23T15:48:26.556Z,73.12
2022-08-23T15:49:26.535Z,73.12
2022-08-23T15:50:26.503Z,73.12
2022-08-23T15:51:26.497Z,73.12
2022-08-23T15:52:26.510Z,73.12
2022-08-23T15:53:26.469Z,73.12
2022-08-23T15:54:26.470Z,73.12
2022-08-23T15:55:26.452Z,73.12
2022-08-23T15:56:26.444Z,67.50
2022-08-23T15:57:27.939Z,67.50
2022-08-23T15:58:26.423Z,67.50
2022-08-23T15:59:26.413Z,56.25
2022-08-23T16:00:31.956Z,45.00
2022-08-23T16:01:26.461Z,67.50
2022-08-23T16:02:26.441Z,67.50
2022-08-23T16:03:26.475Z,67.50
2022-08-23T16:04:26.351Z,67.50
2022-08-23T16:05:27.342Z,67.50
2022-08-23T16:06:26.336Z,67.50
2022-08-23T16:07:26.335Z,67.50
2022-08-23T16:08:26.324Z,67.50
2022-08-23T16:09:26.339Z,67.50
2022-08-23T16:10:28.099Z,67.50
2022-08-23T16:11:26.276Z,67.50
2022-08-23T16:12:26.268Z,67.50
2022-08-23T16:13:31.287Z,67.50
2022-08-23T16:14:26.291Z,67.50
2022-08-23T16:15:26.261Z,67.50
2022-08-23T16:16:26.294Z,61.88
2022-08-23T16:17:26.213Z,61.88
2022-08-23T16:18:26.217Z,61.88
2022-08-23T16:19:26.196Z,61.88
2022-08-23T16:20:26.181Z,61.88
2022-08-23T16:21:26.176Z,61.88
2022-08-23T16:22:26.163Z,61.88
2022-08-23T16:23:26.158Z,61.88
2022-08-23T16:24:26.144Z,61.88
2022-08-23T16:25:26.130Z,61.88
2022-08-23T16:26:35.157Z,61.88
2022-08-23T16:27:26.174Z,61.88
2022-08-23T16:28:26.129Z,61.88
2022-08-23T16:29:26.087Z,61.88
2022-08-23T16:30:26.093Z,61.88
2022-08-23T16:31:38.617Z,61.88
2022-08-23T16:32:27.055Z,61.88
2022-08-23T16:33:26.067Z,61.88
2022-08-23T16:34:26.089Z,61.88
2022-08-23T16:35:26.067Z,61.88
2022-08-23T16:36:30.101Z,61.88
2022-08-23T16:37:26.025Z,61.88
2022-08-23T16:38:26.025Z,61.88
2022-08-23T16:39:31.000Z,61.88
2022-08-23T16:40:26.058Z,61.88
2022-08-23T16:41:25.977Z,61.88
2022-08-23T16:42:25.961Z,67.50
2022-08-23T16:43:25.951Z,67.50
2022-08-23T16:44:25.922Z,67.50
2022-08-23T16:45:26.512Z,61.88
2022-08-23T16:46:26.001Z,61.88